sensor_id;sensor_type;location;lat;lon;timestamp;pressure;altitude;pressure_sealevel;temperature;humidity
29383;BME280;16365;51.598;7.668;2023-06-14T00:01:02;100784.13;;;25.60;26.54
29383;BME280;16365;51.598;7.668;2023-06-14T00:03:29;100777.69;;;25.56;26.55
29383;BME280;16365;51.598;7.668;2023-06-14T00:06:00;100778.56;;;25.53;26.48
29383;BME280;16365;51.598;7.668;2023-06-14T00:08:26;100783.84;;;25.51;26.33
29383;BME280;16365;51.598;7.668;2023-06-14T00:10:53;100787.56;;;25.48;26.52
29383;BME280;16365;51.598;7.668;2023-06-14T00:13:19;100790.03;;;25.46;26.43
29383;BME280;16365;51.598;7.668;2023-06-14T00:15:46;100797.75;;;25.46;25.98
29383;BME280;16365;51.598;7.668;2023-06-14T00:18:14;100794.53;;;25.44;26.19
29383;BME280;16365;51.598;7.668;2023-06-14T00:20:41;100799.81;;;25.42;26.29
29383;BME280;16365;51.598;7.668;2023-06-14T00:23:09;100802.28;;;25.40;26.38
29383;BME280;16365;51.598;7.668;2023-06-14T00:25:36;100806.38;;;25.38;26.18
29383;BME280;16365;51.598;7.668;2023-06-14T00:28:03;100802.34;;;25.36;26.49
29383;BME280;16365;51.598;7.668;2023-06-14T00:30:30;100799.13;;;25.34;26.46
29383;BME280;16365;51.598;7.668;2023-06-14T00:32:57;100803.19;;;25.33;26.52
29383;BME280;16365;51.598;7.668;2023-06-14T00:35:24;100804.06;;;25.30;26.57
29383;BME280;16365;51.598;7.668;2023-06-14T00:37:52;100806.50;;;25.28;26.43
29383;BME280;16365;51.598;7.668;2023-06-14T00:40:21;100806.94;;;25.26;26.27
29383;BME280;16365;51.598;7.668;2023-06-14T00:42:48;100817.09;;;25.24;26.31
29383;BME280;16365;51.598;7.668;2023-06-14T00:45:15;100805.38;;;25.22;26.48
29383;BME280;16365;51.598;7.668;2023-06-14T00:47:42;100813.13;;;25.18;26.28
29383;BME280;16365;51.598;7.668;2023-06-14T00:50:10;100809.94;;;25.16;26.59
29383;BME280;16365;51.598;7.668;2023-06-14T00:52:37;100813.25;;;25.10;26.40
29383;BME280;16365;51.598;7.668;2023-06-14T00:55:05;100808.81;;;25.06;26.42
29383;BME280;16365;51.598;7.668;2023-06-14T00:57:32;100814.53;;;25.02;26.62
29383;BME280;16365;51.598;7.668;2023-06-14T00:59:59;100809.31;;;24.97;26.61
29383;BME280;16365;51.598;7.668;2023-06-14T01:02:28;100817.50;;;24.92;26.63
29383;BME280;16365;51.598;7.668;2023-06-14T01:04:55;100819.56;;;24.87;26.45
29383;BME280;16365;51.598;7.668;2023-06-14T01:13:20;100821.78;;;24.73;26.97
29383;BME280;16365;51.598;7.668;2023-06-14T01:15:51;100825.84;;;24.72;26.75
29383;BME280;16365;51.598;7.668;2023-06-14T01:18:18;100823.03;;;24.68;26.79
29383;BME280;16365;51.598;7.668;2023-06-14T01:20:46;100833.63;;;24.64;26.93
29383;BME280;16365;51.598;7.668;2023-06-14T01:23:18;100832.84;;;24.60;26.89
29383;BME280;16365;51.598;7.668;2023-06-14T01:25:47;100832.47;;;24.58;27.18
29383;BME280;16365;51.598;7.668;2023-06-14T01:28:21;100831.69;;;24.54;26.97
29383;BME280;16365;51.598;7.668;2023-06-14T01:30:51;100832.53;;;24.51;27.16
29383;BME280;16365;51.598;7.668;2023-06-14T01:33:21;100832.97;;;24.49;27.10
29383;BME280;16365;51.598;7.668;2023-06-14T01:35:52;100833.00;;;24.46;27.00
29383;BME280;16365;51.598;7.668;2023-06-14T01:38:22;100839.53;;;24.43;27.01
29383;BME280;16365;51.598;7.668;2023-06-14T01:40:50;100834.25;;;24.41;27.16
29383;BME280;16365;51.598;7.668;2023-06-14T01:43:18;100833.44;;;24.41;26.77
29383;BME280;16365;51.598;7.668;2023-06-14T01:45:47;100840.31;;;24.43;27.10
29383;BME280;16365;51.598;7.668;2023-06-14T01:48:19;100842.38;;;24.39;27.06
29383;BME280;16365;51.598;7.668;2023-06-14T01:50:47;100840.78;;;24.38;26.65
29383;BME280;16365;51.598;7.668;2023-06-14T01:53:14;100841.16;;;24.40;27.02
29383;BME280;16365;51.598;7.668;2023-06-14T01:55:41;100835.91;;;24.35;27.09
29383;BME280;16365;51.598;7.668;2023-06-14T01:58:12;100835.56;;;24.29;27.34
29383;BME280;16365;51.598;7.668;2023-06-14T02:00:39;100831.53;;;24.27;27.26
29383;BME280;16365;51.598;7.668;2023-06-14T02:03:07;100828.75;;;24.23;27.41
29383;BME280;16365;51.598;7.668;2023-06-14T02:05:37;100830.81;;;24.19;27.42
29383;BME280;16365;51.598;7.668;2023-06-14T02:08:06;100833.22;;;24.17;27.25
29383;BME280;16365;51.598;7.668;2023-06-14T02:10:35;100825.97;;;24.16;27.56
29383;BME280;16365;51.598;7.668;2023-06-14T02:13:04;100819.13;;;24.14;27.58
29383;BME280;16365;51.598;7.668;2023-06-14T02:15:30;100815.88;;;24.11;27.71
29383;BME280;16365;51.598;7.668;2023-06-14T02:18:04;100827.28;;;24.08;27.81
29383;BME280;16365;51.598;7.668;2023-06-14T02:20:31;100828.09;;;24.05;27.70
29383;BME280;16365;51.598;7.668;2023-06-14T02:23:00;100822.03;;;24.03;27.75
29383;BME280;16365;51.598;7.668;2023-06-14T02:25:31;100835.81;;;24.01;27.83
29383;BME280;16365;51.598;7.668;2023-06-14T02:27:57;100830.56;;;23.99;27.86
29383;BME280;16365;51.598;7.668;2023-06-14T02:30:24;100830.97;;;23.98;27.83
29383;BME280;16365;51.598;7.668;2023-06-14T02:32:51;100827.34;;;23.97;27.97
29383;BME280;16365;51.598;7.668;2023-06-14T02:35:17;100828.56;;;23.96;27.83
29383;BME280;16365;51.598;7.668;2023-06-14T02:37:45;100827.34;;;23.97;28.01
29383;BME280;16365;51.598;7.668;2023-06-14T02:40:13;100834.22;;;23.96;28.00
29383;BME280;16365;51.598;7.668;2023-06-14T02:42:40;100834.66;;;23.95;28.10
29383;BME280;16365;51.598;7.668;2023-06-14T02:45:07;100832.66;;;23.92;27.79
29383;BME280;16365;51.598;7.668;2023-06-14T02:47:34;100836.34;;;23.89;28.04
29383;BME280;16365;51.598;7.668;2023-06-14T02:50:01;100842.81;;;23.85;27.96
29383;BME280;16365;51.598;7.668;2023-06-14T02:52:28;100840.00;;;23.82;28.20
29383;BME280;16365;51.598;7.668;2023-06-14T02:54:55;100840.84;;;23.79;28.16
29383;BME280;16365;51.598;7.668;2023-06-14T02:57:22;100840.88;;;23.75;28.25
29383;BME280;16365;51.598;7.668;2023-06-14T02:59:50;100847.78;;;23.71;28.16
29383;BME280;16365;51.598;7.668;2023-06-14T03:02:17;100850.63;;;23.67;28.42
29383;BME280;16365;51.598;7.668;2023-06-14T03:04:43;100853.88;;;23.62;28.48
29383;BME280;16365;51.598;7.668;2023-06-14T03:07:11;100858.34;;;23.59;28.33
29383;BME280;16365;51.598;7.668;2023-06-14T03:09:38;100862.00;;;23.56;28.51
29383;BME280;16365;51.598;7.668;2023-06-14T03:12:06;100872.09;;;23.54;28.65
29383;BME280;16365;51.598;7.668;2023-06-14T03:14:36;100859.19;;;23.49;28.33
29383;BME280;16365;51.598;7.668;2023-06-14T03:17:03;100870.13;;;23.47;28.69
29383;BME280;16365;51.598;7.668;2023-06-14T03:19:31;100866.50;;;23.47;27.96
29383;BME280;16365;51.598;7.668;2023-06-14T03:21:57;100868.53;;;23.46;28.62
29383;BME280;16365;51.598;7.668;2023-06-14T03:24:24;100870.56;;;23.42;28.69
29383;BME280;16365;51.598;7.668;2023-06-14T03:26:54;100881.09;;;23.38;28.77
29383;BME280;16365;51.598;7.668;2023-06-14T03:29:21;100880.72;;;23.36;28.93
29383;BME280;16365;51.598;7.668;2023-06-14T03:32:01;100887.19;;;23.29;28.98
29383;BME280;16365;51.598;7.668;2023-06-14T03:34:27;100887.19;;;23.29;29.12
29383;BME280;16365;51.598;7.668;2023-06-14T03:36:54;100894.06;;;23.28;28.88
29383;BME280;16365;51.598;7.668;2023-06-14T03:39:21;100894.50;;;23.27;29.06
29383;BME280;16365;51.598;7.668;2023-06-14T03:41:47;100889.22;;;23.25;28.97
29383;BME280;16365;51.598;7.668;2023-06-14T03:44:17;100895.31;;;23.24;29.45
29383;BME280;16365;51.598;7.668;2023-06-14T03:46:45;100900.16;;;23.23;29.30
29383;BME280;16365;51.598;7.668;2023-06-14T03:49:13;100902.19;;;23.23;29.11
29383;BME280;16365;51.598;7.668;2023-06-14T03:51:39;100903.41;;;23.22;29.13
29383;BME280;16365;51.598;7.668;2023-06-14T03:54:06;100915.53;;;23.19;29.14
29383;BME280;16365;51.598;7.668;2023-06-14T03:56:53;100910.69;;;23.16;29.39
29383;BME280;16365;51.598;7.668;2023-06-14T03:59:19;100918.78;;;23.14;29.70
29383;BME280;16365;51.598;7.668;2023-06-14T04:01:46;100918.78;;;23.14;29.45
29383;BME280;16365;51.598;7.668;2023-06-14T04:04:14;100924.81;;;23.16;29.61
29383;BME280;16365;51.598;7.668;2023-06-14T04:06:42;100926.47;;;23.17;29.68
29383;BME280;16365;51.598;7.668;2023-06-14T04:09:09;100932.06;;;23.20;29.68
29383;BME280;16365;51.598;7.668;2023-06-14T04:11:35;100934.09;;;23.23;29.56
29383;BME280;16365;51.598;7.668;2023-06-14T04:14:02;100941.78;;;23.26;29.61
29383;BME280;16365;51.598;7.668;2023-06-14T04:16:32;100940.13;;;23.29;29.90
29383;BME280;16365;51.598;7.668;2023-06-14T04:19:03;100943.34;;;23.38;30.05
29383;BME280;16365;51.598;7.668;2023-06-14T04:21:29;100942.91;;;23.47;30.09
29383;BME280;16365;51.598;7.668;2023-06-14T04:23:58;100947.72;;;23.53;29.92
29383;BME280;16365;51.598;7.668;2023-06-14T04:26:27;100951.34;;;23.61;29.78
29383;BME280;16365;51.598;7.668;2023-06-14T04:28:56;100952.94;;;23.69;29.42
29383;BME280;16365;51.598;7.668;2023-06-14T04:31:23;100954.06;;;23.82;29.61
29383;BME280;16365;51.598;7.668;2023-06-14T04:33:56;100960.94;;;23.89;29.62
29383;BME280;16365;51.598;7.668;2023-06-14T04:36:22;100960.88;;;23.92;29.63
29383;BME280;16365;51.598;7.668;2023-06-14T04:38:49;100965.75;;;23.95;29.73
29383;BME280;16365;51.598;7.668;2023-06-14T04:41:16;100970.97;;;23.97;29.71
29383;BME280;16365;51.598;7.668;2023-06-14T04:43:44;100971.38;;;23.99;29.82
29383;BME280;16365;51.598;7.668;2023-06-14T04:46:15;100968.94;;;24.01;29.57
29383;BME280;16365;51.598;7.668;2023-06-14T04:48:41;100970.94;;;24.04;29.63
29383;BME280;16365;51.598;7.668;2023-06-14T04:51:09;100974.16;;;24.06;29.38
29383;BME280;16365;51.598;7.668;2023-06-14T04:53:35;100970.91;;;24.07;29.44
29383;BME280;16365;51.598;7.668;2023-06-14T04:56:02;100972.53;;;24.08;29.38
29383;BME280;16365;51.598;7.668;2023-06-14T04:58:30;100978.22;;;24.08;30.01
29383;BME280;16365;51.598;7.668;2023-06-14T05:00:57;100975.38;;;24.08;29.46
29383;BME280;16365;51.598;7.668;2023-06-14T05:03:25;100982.66;;;24.09;29.00
29383;BME280;16365;51.598;7.668;2023-06-14T05:05:53;100978.16;;;24.12;29.46
29383;BME280;16365;51.598;7.668;2023-06-14T05:08:21;100979.81;;;24.09;29.38
29383;BME280;16365;51.598;7.668;2023-06-14T05:10:50;100983.88;;;24.08;29.56
29383;BME280;16365;51.598;7.668;2023-06-14T05:13:17;100975.78;;;24.07;29.65
29383;BME280;16365;51.598;7.668;2023-06-14T05:15:45;100979.84;;;24.06;29.67
29383;BME280;16365;51.598;7.668;2023-06-14T05:18:12;100983.06;;;24.08;29.63
29383;BME280;16365;51.598;7.668;2023-06-14T05:20:41;100985.91;;;24.08;29.78
29383;BME280;16365;51.598;7.668;2023-06-14T05:23:08;100979.41;;;24.07;29.66
29383;BME280;16365;51.598;7.668;2023-06-14T05:25:43;100978.22;;;24.08;29.87
29383;BME280;16365;51.598;7.668;2023-06-14T05:28:10;100976.19;;;24.09;29.82
29383;BME280;16365;51.598;7.668;2023-06-14T05:30:40;100981.03;;;24.08;30.39
29383;BME280;16365;51.598;7.668;2023-06-14T05:33:06;100988.69;;;24.11;30.21
29383;BME280;16365;51.598;7.668;2023-06-14T05:35:33;100981.00;;;24.12;30.20
29383;BME280;16365;51.598;7.668;2023-06-14T05:38:00;100985.84;;;24.11;30.31
29383;BME280;16365;51.598;7.668;2023-06-14T05:40:27;100990.72;;;24.11;30.35
29383;BME280;16365;51.598;7.668;2023-06-14T05:42:53;100989.13;;;24.10;30.31
29383;BME280;16365;51.598;7.668;2023-06-14T05:45:20;100993.97;;;24.09;30.36
29383;BME280;16365;51.598;7.668;2023-06-14T05:47:46;100993.97;;;24.09;30.68
29383;BME280;16365;51.598;7.668;2023-06-14T05:50:13;101010.56;;;24.11;30.51
29383;BME280;16365;51.598;7.668;2023-06-14T05:52:40;101000.03;;;24.11;30.56
29383;BME280;16365;51.598;7.668;2023-06-14T05:55:08;101010.13;;;24.16;30.49
29383;BME280;16365;51.598;7.668;2023-06-14T05:57:34;101000.00;;;24.19;30.42
29383;BME280;16365;51.598;7.668;2023-06-14T06:00:02;101003.63;;;24.23;30.21
29383;BME280;16365;51.598;7.668;2023-06-14T06:02:36;101006.00;;;24.28;29.99
29383;BME280;16365;51.598;7.668;2023-06-14T06:05:02;101006.75;;;24.32;30.09
29383;BME280;16365;51.598;7.668;2023-06-14T06:07:29;100999.47;;;24.34;30.05
29383;BME280;16365;51.598;7.668;2023-06-14T06:09:56;101000.72;;;24.37;29.87
29383;BME280;16365;51.598;7.668;2023-06-14T06:12:23;101007.56;;;24.40;29.78
29383;BME280;16365;51.598;7.668;2023-06-14T06:14:50;101005.09;;;24.42;29.92
29383;BME280;16365;51.598;7.668;2023-06-14T06:17:16;101006.75;;;24.43;29.79
29383;BME280;16365;51.598;7.668;2023-06-14T06:19:43;101005.09;;;24.45;29.85
29383;BME280;16365;51.598;7.668;2023-06-14T06:22:10;101005.91;;;24.46;29.89
29383;BME280;16365;51.598;7.668;2023-06-14T06:24:37;101007.91;;;24.49;30.04
29383;BME280;16365;51.598;7.668;2023-06-14T06:27:04;101004.25;;;24.52;29.96
29383;BME280;16365;51.598;7.668;2023-06-14T06:29:30;101015.53;;;24.55;29.92
29383;BME280;16365;51.598;7.668;2023-06-14T06:31:57;101011.88;;;24.58;30.00
29383;BME280;16365;51.598;7.668;2023-06-14T06:34:23;101017.53;;;24.62;29.83
29383;BME280;16365;51.598;7.668;2023-06-14T06:36:50;101013.03;;;24.65;30.06
29383;BME280;16365;51.598;7.668;2023-06-14T06:39:17;101014.63;;;24.69;30.21
29383;BME280;16365;51.598;7.668;2023-06-14T06:41:43;101006.91;;;24.73;29.90
29383;BME280;16365;51.598;7.668;2023-06-14T06:44:10;101017.00;;;24.78;29.86
29383;BME280;16365;51.598;7.668;2023-06-14T06:46:37;101018.19;;;24.80;29.73
29383;BME280;16365;51.598;7.668;2023-06-14T06:49:08;101025.03;;;24.86;29.97
29383;BME280;16365;51.598;7.668;2023-06-14T06:51:35;101027.84;;;24.90;30.05
29383;BME280;16365;51.598;7.668;2023-06-14T06:54:03;101033.06;;;24.95;29.65
29383;BME280;16365;51.598;7.668;2023-06-14T06:56:29;101031.41;;;24.98;29.92
29383;BME280;16365;51.598;7.668;2023-06-14T06:58:57;101046.34;;;25.02;29.76
29383;BME280;16365;51.598;7.668;2023-06-14T07:01:24;101038.66;;;25.02;29.97
29383;BME280;16365;51.598;7.668;2023-06-14T07:03:52;101047.53;;;25.08;29.77
29383;BME280;16365;51.598;7.668;2023-06-14T07:06:18;101040.63;;;25.09;29.67
29383;BME280;16365;51.598;7.668;2023-06-14T07:08:45;101042.63;;;25.12;29.88
29383;BME280;16365;51.598;7.668;2023-06-14T07:11:14;101049.53;;;25.15;29.49
29383;BME280;16365;51.598;7.668;2023-06-14T07:13:41;101045.81;;;25.18;29.65
29383;BME280;16365;51.598;7.668;2023-06-14T07:16:08;101049.88;;;25.20;29.39
29383;BME280;16365;51.598;7.668;2023-06-14T07:18:34;101049.06;;;25.20;29.48
29383;BME280;16365;51.598;7.668;2023-06-14T07:21:01;101053.50;;;25.21;29.61
29383;BME280;16365;51.598;7.668;2023-06-14T07:23:28;101042.16;;;25.21;29.87
29383;BME280;16365;51.598;7.668;2023-06-14T07:25:57;101049.81;;;25.24;29.73
29383;BME280;16365;51.598;7.668;2023-06-14T07:28:23;101042.50;;;25.26;29.31
29383;BME280;16365;51.598;7.668;2023-06-14T07:30:52;101052.22;;;25.29;29.58
29383;BME280;16365;51.598;7.668;2023-06-14T07:33:19;101041.59;;;25.33;29.28
29383;BME280;16365;51.598;7.668;2023-06-14T07:35:48;101040.78;;;25.36;29.26
29383;BME280;16365;51.598;7.668;2023-06-14T07:38:15;101040.31;;;25.41;29.10
29383;BME280;16365;51.598;7.668;2023-06-14T07:40:41;101034.97;;;25.47;28.89
29383;BME280;16365;51.598;7.668;2023-06-14T07:43:08;101034.13;;;25.50;28.66
29383;BME280;16365;51.598;7.668;2023-06-14T07:45:35;101043.34;;;25.57;28.68
29383;BME280;16365;51.598;7.668;2023-06-14T07:48:02;101038.03;;;25.63;28.75
29383;BME280;16365;51.598;7.668;2023-06-14T07:50:29;101043.19;;;25.72;28.71
29383;BME280;16365;51.598;7.668;2023-06-14T07:52:56;101044.31;;;25.81;28.39
29383;BME280;16365;51.598;7.668;2023-06-14T07:55:23;101054.75;;;25.92;28.24
29383;BME280;16365;51.598;7.668;2023-06-14T07:57:49;101048.53;;;26.00;27.94
29383;BME280;16365;51.598;7.668;2023-06-14T08:00:16;101051.31;;;26.07;27.93
29383;BME280;16365;51.598;7.668;2023-06-14T08:02:44;101057.63;;;26.19;27.97
29383;BME280;16365;51.598;7.668;2023-06-14T08:05:11;101057.06;;;26.31;27.87
29383;BME280;16365;51.598;7.668;2023-06-14T08:07:39;101062.66;;;26.38;27.39
29383;BME280;16365;51.598;7.668;2023-06-14T08:10:06;101056.06;;;26.45;27.29
29383;BME280;16365;51.598;7.668;2023-06-14T08:12:33;101054.38;;;26.51;27.22
29383;BME280;16365;51.598;7.668;2023-06-14T08:15:01;101052.97;;;26.62;27.18
29383;BME280;16365;51.598;7.668;2023-06-14T08:17:34;101056.50;;;26.70;27.13
29383;BME280;16365;51.598;7.668;2023-06-14T08:20:01;101057.97;;;26.78;26.67
29383;BME280;16365;51.598;7.668;2023-06-14T08:22:27;101044.81;;;26.88;26.70
29383;BME280;16365;51.598;7.668;2023-06-14T08:24:55;101061.78;;;26.95;25.91
29383;BME280;16365;51.598;7.668;2023-06-14T08:27:21;101060.03;;;27.01;25.30
29383;BME280;16365;51.598;7.668;2023-06-14T08:29:49;101059.19;;;27.04;25.94
29383;BME280;16365;51.598;7.668;2023-06-14T08:32:15;101055.44;;;27.07;25.39
29383;BME280;16365;51.598;7.668;2023-06-14T08:34:42;101053.03;;;27.09;24.71
29383;BME280;16365;51.598;7.668;2023-06-14T08:37:21;101048.47;;;27.12;25.40
29383;BME280;16365;51.598;7.668;2023-06-14T08:39:48;101053.75;;;27.13;25.53
29383;BME280;16365;51.598;7.668;2023-06-14T08:42:15;101053.75;;;27.13;25.31
29383;BME280;16365;51.598;7.668;2023-06-14T08:44:57;101056.97;;;27.15;25.05
29383;BME280;16365;51.598;7.668;2023-06-14T08:47:23;101054.06;;;27.19;25.40
29383;BME280;16365;51.598;7.668;2023-06-14T08:49:53;101061.31;;;27.24;25.98
29383;BME280;16365;51.598;7.668;2023-06-14T08:52:24;101052.25;;;27.29;25.67
29383;BME280;16365;51.598;7.668;2023-06-14T08:54:56;101061.44;;;27.36;25.53
29383;BME280;16365;51.598;7.668;2023-06-14T08:57:27;101051.25;;;27.39;25.09
29383;BME280;16365;51.598;7.668;2023-06-14T08:59:56;101055.63;;;27.44;25.03
29383;BME280;16365;51.598;7.668;2023-06-14T09:02:23;101053.94;;;27.46;25.08
29383;BME280;16365;51.598;7.668;2023-06-14T09:04:51;101047.44;;;27.46;25.21
29383;BME280;16365;51.598;7.668;2023-06-14T09:07:18;101065.78;;;27.45;25.30
29383;BME280;16365;51.598;7.668;2023-06-14T09:09:45;101069.44;;;27.45;24.67
29383;BME280;16365;51.598;7.668;2023-06-14T09:12:31;101061.28;;;27.47;25.07
29383;BME280;16365;51.598;7.668;2023-06-14T09:14:58;101055.13;;;27.49;25.20
29383;BME280;16365;51.598;7.668;2023-06-14T09:17:25;101062.81;;;27.52;25.47
29383;BME280;16365;51.598;7.668;2023-06-14T09:19:55;101061.91;;;27.55;25.30
29383;BME280;16365;51.598;7.668;2023-06-14T09:22:21;101072.38;;;27.61;25.40
29383;BME280;16365;51.598;7.668;2023-06-14T09:24:48;101063.75;;;27.65;25.40
29383;BME280;16365;51.598;7.668;2023-06-14T09:27:15;101071.78;;;27.70;25.09
29383;BME280;16365;51.598;7.668;2023-06-14T09:29:42;101069.72;;;27.74;25.31
29383;BME280;16365;51.598;7.668;2023-06-14T09:32:09;101069.28;;;27.76;25.51
29383;BME280;16365;51.598;7.668;2023-06-14T09:34:35;101076.13;;;27.78;25.69
29383;BME280;16365;51.598;7.668;2023-06-14T09:37:02;101074.47;;;27.81;25.57
29383;BME280;16365;51.598;7.668;2023-06-14T09:39:29;101086.28;;;27.79;25.21
29383;BME280;16365;51.598;7.668;2023-06-14T09:41:56;101081.84;;;27.78;25.06
29383;BME280;16365;51.598;7.668;2023-06-14T09:44:22;101091.63;;;27.77;25.42
29383;BME280;16365;51.598;7.668;2023-06-14T09:46:51;101088.06;;;27.73;25.62
29383;BME280;16365;51.598;7.668;2023-06-14T09:49:19;101080.34;;;27.70;25.29
29383;BME280;16365;51.598;7.668;2023-06-14T09:51:50;101082.47;;;27.66;25.02
29383;BME280;16365;51.598;7.668;2023-06-14T09:54:22;101088.69;;;27.61;25.48
29383;BME280;16365;51.598;7.668;2023-06-14T09:56:51;101086.25;;;27.59;24.79
29383;BME280;16365;51.598;7.668;2023-06-14T09:59:22;101074.91;;;27.56;25.36
29383;BME280;16365;51.598;7.668;2023-06-14T10:01:57;101084.34;;;27.53;25.89
29383;BME280;16365;51.598;7.668;2023-06-14T10:04:24;101080.31;;;27.50;25.63
29383;BME280;16365;51.598;7.668;2023-06-14T10:06:52;101085.59;;;27.52;25.69
29383;BME280;16365;51.598;7.668;2023-06-14T10:09:20;101090.34;;;27.58;25.72
29383;BME280;16365;51.598;7.668;2023-06-14T10:11:48;101088.25;;;27.62;25.74
29383;BME280;16365;51.598;7.668;2023-06-14T10:14:15;101075.94;;;27.65;25.33
29383;BME280;16365;51.598;7.668;2023-06-14T10:16:58;101094.38;;;27.61;25.84
29383;BME280;16365;51.598;7.668;2023-06-14T10:19:46;101085.44;;;27.59;25.66
29383;BME280;16365;51.598;7.668;2023-06-14T10:22:21;101080.13;;;27.61;25.77
29383;BME280;16365;51.598;7.668;2023-06-14T10:24:51;101083.34;;;27.63;25.62
29383;BME280;16365;51.598;7.668;2023-06-14T10:27:18;101074.84;;;27.59;26.10
29383;BME280;16365;51.598;7.668;2023-06-14T10:32:23;101072.06;;;27.56;26.01
29383;BME280;16365;51.598;7.668;2023-06-14T10:35:04;101088.00;;;27.53;26.25
29383;BME280;16365;51.598;7.668;2023-06-14T10:37:31;101076.56;;;27.57;26.20
29383;BME280;16365;51.598;7.668;2023-06-14T10:39:57;101080.13;;;27.61;26.40
29383;BME280;16365;51.598;7.668;2023-06-14T10:42:29;101074.72;;;27.66;25.69
29383;BME280;16365;51.598;7.668;2023-06-14T10:44:58;101071.75;;;27.74;25.99
29383;BME280;16365;51.598;7.668;2023-06-14T10:47:31;101074.09;;;27.79;25.94
29383;BME280;16365;51.598;7.668;2023-06-14T10:52:28;101076.72;;;27.89;25.57
29383;BME280;16365;51.598;7.668;2023-06-14T10:54:59;101076.66;;;27.93;25.36
29383;BME280;16365;51.598;7.668;2023-06-14T10:57:26;101077.84;;;27.96;25.77
29383;BME280;16365;51.598;7.668;2023-06-14T10:59:53;101069.28;;;27.96;25.61
29383;BME280;16365;51.598;7.668;2023-06-14T11:05:08;101065.63;;;27.95;25.85
29383;BME280;16365;51.598;7.668;2023-06-14T11:10:43;101068.03;;;27.97;25.34
29383;BME280;16365;51.598;7.668;2023-06-14T11:13:09;101072.41;;;28.01;25.57
29383;BME280;16365;51.598;7.668;2023-06-14T11:15:37;101066.72;;;28.01;25.63
29383;BME280;16365;51.598;7.668;2023-06-14T11:18:08;101070.81;;;28.00;25.62
29383;BME280;16365;51.598;7.668;2023-06-14T11:20:37;101067.06;;;28.03;25.29
29383;BME280;16365;51.598;7.668;2023-06-14T11:23:04;101058.97;;;28.02;25.62
29383;BME280;16365;51.598;7.668;2023-06-14T11:25:31;101071.50;;;28.04;25.68
29383;BME280;16365;51.598;7.668;2023-06-14T11:27:58;101062.97;;;28.04;25.66
29383;BME280;16365;51.598;7.668;2023-06-14T11:30:26;101060.03;;;28.08;25.88
29383;BME280;16365;51.598;7.668;2023-06-14T11:32:53;101052.66;;;28.10;25.67
29383;BME280;16365;51.598;7.668;2023-06-14T11:35:24;101066.81;;;28.14;25.86
29383;BME280;16365;51.598;7.668;2023-06-14T11:37:55;101058.66;;;28.16;25.34
29383;BME280;16365;51.598;7.668;2023-06-14T11:40:24;101061.31;;;28.23;25.44
29383;BME280;16365;51.598;7.668;2023-06-14T11:42:58;101054.41;;;28.24;25.58
29383;BME280;16365;51.598;7.668;2023-06-14T11:45:26;101058.34;;;28.30;25.64
29383;BME280;16365;51.598;7.668;2023-06-14T11:47:58;101047.28;;;28.32;25.64
29383;BME280;16365;51.598;7.668;2023-06-14T11:50:26;101049.63;;;28.37;25.72
29383;BME280;16365;51.598;7.668;2023-06-14T11:52:57;101051.59;;;28.40;25.41
29383;BME280;16365;51.598;7.668;2023-06-14T11:55:26;101053.47;;;28.47;25.46
29383;BME280;16365;51.598;7.668;2023-06-14T11:57:55;101049.41;;;28.48;25.35
29383;BME280;16365;51.598;7.668;2023-06-14T12:00:26;101051.81;;;28.50;25.30
29383;BME280;16365;51.598;7.668;2023-06-14T12:02:54;101059.03;;;28.54;25.28
29383;BME280;16365;51.598;7.668;2023-06-14T12:05:25;101041.84;;;28.58;25.22
29383;BME280;16365;51.598;7.668;2023-06-14T12:08:03;101046.28;;;28.59;25.25
29383;BME280;16365;51.598;7.668;2023-06-14T12:10:39;101049.84;;;28.63;25.10
29383;BME280;16365;51.598;7.668;2023-06-14T12:13:06;101061.53;;;28.68;25.08
29383;BME280;16365;51.598;7.668;2023-06-14T12:15:33;101048.88;;;28.69;25.11
29383;BME280;16365;51.598;7.668;2023-06-14T12:18:06;101052.97;;;28.68;24.94
29383;BME280;16365;51.598;7.668;2023-06-14T12:20:35;101055.75;;;28.72;24.94
29383;BME280;16365;51.598;7.668;2023-06-14T12:23:04;101058.94;;;28.74;25.15
29383;BME280;16365;51.598;7.668;2023-06-14T12:25:37;101049.13;;;28.75;24.81
29383;BME280;16365;51.598;7.668;2023-06-14T12:28:07;101060.00;;;28.80;24.90
29383;BME280;16365;51.598;7.668;2023-06-14T12:30:35;101053.97;;;28.78;25.02
29383;BME280;16365;51.598;7.668;2023-06-14T12:33:03;101052.16;;;28.84;24.73
29383;BME280;16365;51.598;7.668;2023-06-14T12:35:30;101044.78;;;28.87;24.90
29383;BME280;16365;51.598;7.668;2023-06-14T12:37:57;101042.97;;;28.93;24.61
29383;BME280;16365;51.598;7.668;2023-06-14T12:40:23;101040.94;;;28.93;24.89
29383;BME280;16365;51.598;7.668;2023-06-14T12:42:50;101049.50;;;28.93;24.82
29383;BME280;16365;51.598;7.668;2023-06-14T12:45:17;101044.16;;;28.96;24.39
29383;BME280;16365;51.598;7.668;2023-06-14T12:47:44;101048.19;;;28.98;24.59
29383;BME280;16365;51.598;7.668;2023-06-14T12:50:10;101043.28;;;28.99;24.60
29383;BME280;16365;51.598;7.668;2023-06-14T12:52:37;101051.38;;;29.00;24.11
29383;BME280;16365;51.598;7.668;2023-06-14T12:55:04;101047.72;;;29.00;24.45
29383;BME280;16365;51.598;7.668;2023-06-14T12:57:31;101056.22;;;29.03;24.62
29383;BME280;16365;51.598;7.668;2023-06-14T13:00:00;101057.34;;;29.06;24.45
29383;BME280;16365;51.598;7.668;2023-06-14T13:02:27;101047.09;;;29.08;24.49
29383;BME280;16365;51.598;7.668;2023-06-14T13:04:53;101043.69;;;29.13;24.67
29383;BME280;16365;51.598;7.668;2023-06-14T13:07:20;101044.03;;;29.15;24.20
29383;BME280;16365;51.598;7.668;2023-06-14T13:09:46;101048.06;;;29.18;24.72
29383;BME280;16365;51.598;7.668;2023-06-14T13:12:13;101041.91;;;29.19;24.28